sensor_id;sensor_type;location;lat;lon;timestamp;pressure;altitude;pressure_sealevel;temperature;humidity
68941;BME280;55982;51.476;7.552;2023-03-22T00:02:19;99262.72;;;10.57;100.00
68941;BME280;55982;51.476;7.552;2023-03-22T00:04:44;99265.03;;;10.43;100.00
68941;BME280;55982;51.476;7.552;2023-03-22T00:07:10;99257.34;;;10.40;100.00
68941;BME280;55982;51.476;7.552;2023-03-22T00:09:35;99259.94;;;10.40;100.00
68941;BME280;55982;51.476;7.552;2023-03-22T00:12:01;99261.69;;;10.40;100.00
68941;BME280;55982;51.476;7.552;2023-03-22T00:14:26;99256.03;;;10.50;100.00
68941;BME280;55982;51.476;7.552;2023-03-22T00:16:51;99257.63;;;10.54;100.00
68941;BME280;55982;51.476;7.552;2023-03-22T00:19:17;99257.53;;;10.56;100.00
68941;BME280;55982;51.476;7.552;2023-03-22T00:21:42;99255.50;;;10.62;100.00
68941;BME280;55982;51.476;7.552;2023-03-22T00:24:08;99253.41;;;10.70;100.00
68941;BME280;55982;51.476;7.552;2023-03-22T00:26:33;99251.47;;;10.75;100.00
68941;BME280;55982;51.476;7.552;2023-03-22T00:28:58;99251.59;;;10.72;100.00
68941;BME280;55982;51.476;7.552;2023-03-22T00:31:24;99251.81;;;10.68;100.00
68941;BME280;55982;51.476;7.552;2023-03-22T00:33:50;99250.94;;;10.67;100.00
68941;BME280;55982;51.476;7.552;2023-03-22T00:36:15;99246.50;;;10.69;100.00
68941;BME280;55982;51.476;7.552;2023-03-22T00:38:40;99246.63;;;10.66;100.00
68941;BME280;55982;51.476;7.552;2023-03-22T00:41:19;99243.34;;;10.61;100.00
68941;BME280;55982;51.476;7.552;2023-03-22T00:43:46;99237.28;;;10.61;100.00
68941;BME280;55982;51.476;7.552;2023-03-22T00:46:12;99239.69;;;10.65;100.00
68941;BME280;55982;51.476;7.552;2023-03-22T00:48:38;99231.78;;;10.67;100.00
68941;BME280;55982;51.476;7.552;2023-03-22T00:51:04;99234.47;;;10.65;100.00
68941;BME280;55982;51.476;7.552;2023-03-22T00:53:30;99232.03;;;10.61;100.00
68941;BME280;55982;51.476;7.552;2023-03-22T00:55:57;99231.78;;;10.67;100.00
68941;BME280;55982;51.476;7.552;2023-03-22T00:58:23;99228.31;;;10.66;100.00
68941;BME280;55982;51.476;7.552;2023-03-22T01:00:48;99227.41;;;10.67;100.00
68941;BME280;55982;51.476;7.552;2023-03-22T01:03:14;99225.66;;;10.68;100.00
68941;BME280;55982;51.476;7.552;2023-03-22T01:05:40;99213.13;;;10.74;100.00
68941;BME280;55982;51.476;7.552;2023-03-22T01:08:09;99209.47;;;10.78;100.00
68941;BME280;55982;51.476;7.552;2023-03-22T01:10:36;99209.47;;;10.78;100.00
68941;BME280;55982;51.476;7.552;2023-03-22T01:13:02;99201.09;;;10.70;100.00
68941;BME280;55982;51.476;7.552;2023-03-22T01:15:28;99191.34;;;10.74;100.00
68941;BME280;55982;51.476;7.552;2023-03-22T01:17:53;99188.81;;;10.72;100.00
68941;BME280;55982;51.476;7.552;2023-03-22T01:20:18;99191.69;;;10.66;100.00
68941;BME280;55982;51.476;7.552;2023-03-22T01:22:44;99188.97;;;10.69;100.00
68941;BME280;55982;51.476;7.552;2023-03-22T01:25:09;99194.03;;;10.72;100.00
68941;BME280;55982;51.476;7.552;2023-03-22T01:27:35;99185.28;;;10.73;100.00
68941;BME280;55982;51.476;7.552;2023-03-22T01:30:01;99179.19;;;10.73;100.00
68941;BME280;55982;51.476;7.552;2023-03-22T01:32:26;99183.47;;;10.75;100.00
68941;BME280;55982;51.476;7.552;2023-03-22T01:34:51;99186.19;;;10.72;100.00
68941;BME280;55982;51.476;7.552;2023-03-22T01:37:18;99174.94;;;10.70;100.00
68941;BME280;55982;51.476;7.552;2023-03-22T01:39:43;99173.38;;;10.66;100.00
68941;BME280;55982;51.476;7.552;2023-03-22T01:42:12;99194.44;;;10.63;100.00
68941;BME280;55982;51.476;7.552;2023-03-22T01:44:41;99190.00;;;10.65;100.00
68941;BME280;55982;51.476;7.552;2023-03-22T01:47:07;99174.31;;;10.65;100.00
68941;BME280;55982;51.476;7.552;2023-03-22T01:49:35;99175.50;;;10.58;100.00
68941;BME280;55982;51.476;7.552;2023-03-22T01:52:08;99178.38;;;10.52;100.00
68941;BME280;55982;51.476;7.552;2023-03-22T01:54:53;99168.56;;;10.57;100.00
68941;BME280;55982;51.476;7.552;2023-03-22T01:57:18;99172.66;;;10.63;100.00
68941;BME280;55982;51.476;7.552;2023-03-22T01:59:45;99172.56;;;10.66;100.00
68941;BME280;55982;51.476;7.552;2023-03-22T02:02:12;99168.16;;;10.66;100.00
68941;BME280;55982;51.476;7.552;2023-03-22T02:04:44;99157.03;;;10.61;100.00
68941;BME280;55982;51.476;7.552;2023-03-22T02:07:15;99163.06;;;10.63;100.00
68941;BME280;55982;51.476;7.552;2023-03-22T02:09:50;99161.34;;;10.62;100.00
68941;BME280;55982;51.476;7.552;2023-03-22T02:12:42;99145.66;;;10.62;100.00
68941;BME280;55982;51.476;7.552;2023-03-22T02:20:42;99133.34;;;10.64;100.00
68941;BME280;55982;51.476;7.552;2023-03-22T02:31:27;99132.78;;;10.58;100.00
68941;BME280;55982;51.476;7.552;2023-03-22T02:40:11;99124.59;;;10.47;100.00
68941;BME280;55982;51.476;7.552;2023-03-22T02:42:48;99122.16;;;10.42;100.00
68941;BME280;55982;51.476;7.552;2023-03-22T02:45:33;99128.84;;;10.29;100.00
68941;BME280;55982;51.476;7.552;2023-03-22T02:50:47;99119.81;;;10.16;100.00
68941;BME280;55982;51.476;7.552;2023-03-22T02:53:19;99123.97;;;10.20;100.00
68941;BME280;55982;51.476;7.552;2023-03-22T02:55:58;99109.81;;;10.26;100.00
68941;BME280;55982;51.476;7.552;2023-03-22T03:01:05;99101.91;;;10.27;100.00
68941;BME280;55982;51.476;7.552;2023-03-22T03:03:32;99098.25;;;10.31;100.00
68941;BME280;55982;51.476;7.552;2023-03-22T03:06:07;99091.97;;;10.35;100.00
68941;BME280;55982;51.476;7.552;2023-03-22T03:08:36;99096.28;;;10.36;100.00
68941;BME280;55982;51.476;7.552;2023-03-22T03:11:02;99103.34;;;10.34;100.00
68941;BME280;55982;51.476;7.552;2023-03-22T03:13:27;99095.97;;;10.24;100.00
68941;BME280;55982;51.476;7.552;2023-03-22T03:15:55;99102.31;;;10.18;100.00
68941;BME280;55982;51.476;7.552;2023-03-22T03:18:43;99086.63;;;10.18;100.00
68941;BME280;55982;51.476;7.552;2023-03-22T03:21:24;99088.56;;;10.13;100.00
68941;BME280;55982;51.476;7.552;2023-03-22T03:26:46;99090.16;;;9.95;100.00
68941;BME280;55982;51.476;7.552;2023-03-22T03:34:45;99079.50;;;9.80;100.00
68941;BME280;55982;51.476;7.552;2023-03-22T03:37:20;99085.13;;;9.71;100.00
68941;BME280;55982;51.476;7.552;2023-03-22T03:40:09;99074.13;;;9.63;100.00
68941;BME280;55982;51.476;7.552;2023-03-22T03:42:37;99074.94;;;9.65;100.00
68941;BME280;55982;51.476;7.552;2023-03-22T03:45:05;99075.06;;;9.62;100.00
68941;BME280;55982;51.476;7.552;2023-03-22T03:47:31;99068.28;;;9.58;100.00
68941;BME280;55982;51.476;7.552;2023-03-22T03:49:58;99067.63;;;9.53;100.00
68941;BME280;55982;51.476;7.552;2023-03-22T03:52:24;99068.75;;;9.46;100.00
68941;BME280;55982;51.476;7.552;2023-03-22T03:54:50;99066.94;;;9.48;100.00
68941;BME280;55982;51.476;7.552;2023-03-22T03:57:16;99069.38;;;9.52;100.00
68941;BME280;55982;51.476;7.552;2023-03-22T03:59:41;99065.38;;;9.44;100.00
68941;BME280;55982;51.476;7.552;2023-03-22T04:02:07;99063.78;;;9.40;100.00
68941;BME280;55982;51.476;7.552;2023-03-22T04:04:32;99066.53;;;9.37;100.00
68941;BME280;55982;51.476;7.552;2023-03-22T04:07:00;99063.13;;;9.35;100.00
68941;BME280;55982;51.476;7.552;2023-03-22T04:09:31;99065.75;;;9.35;100.00
68941;BME280;55982;51.476;7.552;2023-03-22T04:11:57;99065.03;;;9.31;100.00
68941;BME280;55982;51.476;7.552;2023-03-22T04:14:24;99073.56;;;9.35;100.00
68941;BME280;55982;51.476;7.552;2023-03-22T04:16:50;99064.16;;;9.31;100.00
68941;BME280;55982;51.476;7.552;2023-03-22T04:19:15;99062.00;;;9.20;100.00
68941;BME280;55982;51.476;7.552;2023-03-22T04:21:41;99056.66;;;9.23;100.00
68941;BME280;55982;51.476;7.552;2023-03-22T04:24:07;99057.50;;;9.23;100.00
68941;BME280;55982;51.476;7.552;2023-03-22T04:26:33;99064.09;;;9.32;100.00
68941;BME280;55982;51.476;7.552;2023-03-22T04:28:59;99061.50;;;9.32;100.00
68941;BME280;55982;51.476;7.552;2023-03-22T04:31:28;99057.91;;;9.35;100.00
68941;BME280;55982;51.476;7.552;2023-03-22T04:33:53;99053.47;;;9.37;100.00
68941;BME280;55982;51.476;7.552;2023-03-22T04:36:20;99054.34;;;9.37;100.00
68941;BME280;55982;51.476;7.552;2023-03-22T04:38:46;99055.56;;;9.29;100.00
68941;BME280;55982;51.476;7.552;2023-03-22T04:41:11;99056.66;;;9.23;100.00
68941;BME280;55982;51.476;7.552;2023-03-22T04:43:37;99055.69;;;9.26;100.00
68941;BME280;55982;51.476;7.552;2023-03-22T04:46:06;99051.78;;;9.36;100.00
68941;BME280;55982;51.476;7.552;2023-03-22T04:48:35;99054.69;;;9.28;100.00
68941;BME280;55982;51.476;7.552;2023-03-22T04:51:02;99056.09;;;9.37;100.00
68941;BME280;55982;51.476;7.552;2023-03-22T04:53:29;99063.19;;;9.33;100.00
68941;BME280;55982;51.476;7.552;2023-03-22T04:55:55;99056.47;;;9.28;100.00
68941;BME280;55982;51.476;7.552;2023-03-22T04:58:22;99052.03;;;9.30;100.00
68941;BME280;55982;51.476;7.552;2023-03-22T05:00:48;99062.59;;;9.27;100.00
68941;BME280;55982;51.476;7.552;2023-03-22T05:03:17;99061.72;;;9.26;100.00
68941;BME280;55982;51.476;7.552;2023-03-22T05:05:54;99057.81;;;9.16;100.00
68941;BME280;55982;51.476;7.552;2023-03-22T05:08:21;99053.31;;;9.19;100.00
68941;BME280;55982;51.476;7.552;2023-03-22T05:10:49;99048.19;;;9.16;100.00
68941;BME280;55982;51.476;7.552;2023-03-22T05:13:15;99056.03;;;9.16;100.00
68941;BME280;55982;51.476;7.552;2023-03-22T05:15:40;99040.50;;;9.13;100.00
68941;BME280;55982;51.476;7.552;2023-03-22T05:18:06;99046.28;;;9.21;100.00
68941;BME280;55982;51.476;7.552;2023-03-22T05:20:32;99048.66;;;9.28;100.00
68941;BME280;55982;51.476;7.552;2023-03-22T05:22:57;99054.66;;;9.30;100.00
68941;BME280;55982;51.476;7.552;2023-03-22T05:25:27;99052.56;;;9.38;100.00
68941;BME280;55982;51.476;7.552;2023-03-22T05:27:52;99059.50;;;9.39;100.00
68941;BME280;55982;51.476;7.552;2023-03-22T05:30:18;99057.34;;;9.48;100.00
68941;BME280;55982;51.476;7.552;2023-03-22T05:32:44;99060.69;;;9.52;100.00
68941;BME280;55982;51.476;7.552;2023-03-22T05:35:12;99059.91;;;9.50;100.00
68941;BME280;55982;51.476;7.552;2023-03-22T05:37:38;99054.69;;;9.50;100.00
68941;BME280;55982;51.476;7.552;2023-03-22T05:40:04;99047.88;;;9.46;100.00
68941;BME280;55982;51.476;7.552;2023-03-22T05:42:30;99056.50;;;9.48;100.00
68941;BME280;55982;51.476;7.552;2023-03-22T05:44:56;99050.00;;;9.58;100.00
68941;BME280;55982;51.476;7.552;2023-03-22T05:47:21;99043.75;;;9.62;100.00
68941;BME280;55982;51.476;7.552;2023-03-22T05:49:47;99050.66;;;9.63;100.00
68941;BME280;55982;51.476;7.552;2023-03-22T05:52:12;99051.97;;;9.73;100.00
68941;BME280;55982;51.476;7.552;2023-03-22T05:54:37;99051.47;;;9.85;100.00
68941;BME280;55982;51.476;7.552;2023-03-22T05:57:03;99044.16;;;9.93;100.00
68941;BME280;55982;51.476;7.552;2023-03-22T05:59:28;99047.94;;;10.06;100.00
68941;BME280;55982;51.476;7.552;2023-03-22T06:01:53;99041.28;;;10.19;100.00
68941;BME280;55982;51.476;7.552;2023-03-22T06:04:26;99043.47;;;10.28;100.00
68941;BME280;55982;51.476;7.552;2023-03-22T06:06:52;99044.91;;;10.35;100.00
68941;BME280;55982;51.476;7.552;2023-03-22T06:09:18;99041.72;;;10.47;100.00
68941;BME280;55982;51.476;7.552;2023-03-22T06:11:43;99035.97;;;10.59;100.00
68941;BME280;55982;51.476;7.552;2023-03-22T06:14:09;99038.41;;;10.62;100.00
68941;BME280;55982;51.476;7.552;2023-03-22T06:16:34;99037.66;;;10.60;100.00
68941;BME280;55982;51.476;7.552;2023-03-22T06:18:59;99032.28;;;10.63;100.00
68941;BME280;55982;51.476;7.552;2023-03-22T06:21:25;99029.16;;;10.55;100.00
68941;BME280;55982;51.476;7.552;2023-03-22T06:23:50;99030.88;;;10.56;100.00
68941;BME280;55982;51.476;7.552;2023-03-22T06:26:15;99029.16;;;10.55;100.00
68941;BME280;55982;51.476;7.552;2023-03-22T06:28:41;99034.28;;;10.58;100.00
68941;BME280;55982;51.476;7.552;2023-03-22T06:31:07;99025.50;;;10.59;100.00
68941;BME280;55982;51.476;7.552;2023-03-22T06:33:36;99020.75;;;10.67;100.00
68941;BME280;55982;51.476;7.552;2023-03-22T06:36:02;99024.00;;;10.72;100.00
68941;BME280;55982;51.476;7.552;2023-03-22T06:38:28;99018.66;;;10.75;100.00
68941;BME280;55982;51.476;7.552;2023-03-22T06:40:54;99017.28;;;10.85;100.00
68941;BME280;55982;51.476;7.552;2023-03-22T06:43:20;99024.00;;;10.91;100.00
68941;BME280;55982;51.476;7.552;2023-03-22T06:45:46;99028.47;;;10.89;100.00
68941;BME280;55982;51.476;7.552;2023-03-22T06:48:12;99028.09;;;10.96;100.00
68941;BME280;55982;51.476;7.552;2023-03-22T06:50:37;99024.06;;;10.89;100.00
68941;BME280;55982;51.476;7.552;2023-03-22T06:53:04;99024.47;;;10.99;100.00
68941;BME280;55982;51.476;7.552;2023-03-22T06:55:30;99020.09;;;10.99;100.00
68941;BME280;55982;51.476;7.552;2023-03-22T06:58:00;99017.97;;;11.07;100.00
68941;BME280;55982;51.476;7.552;2023-03-22T07:00:26;99021.06;;;11.16;100.00
68941;BME280;55982;51.476;7.552;2023-03-22T07:02:52;99020.78;;;11.22;100.00
68941;BME280;55982;51.476;7.552;2023-03-22T07:05:18;99016.31;;;11.24;100.00
68941;BME280;55982;51.476;7.552;2023-03-22T07:07:43;99012.47;;;11.31;100.00
68941;BME280;55982;51.476;7.552;2023-03-22T07:10:10;99005.22;;;11.36;100.00
68941;BME280;55982;51.476;7.552;2023-03-22T07:12:36;99012.31;;;11.34;100.00
68941;BME280;55982;51.476;7.552;2023-03-22T07:15:01;99017.41;;;11.37;100.00
68941;BME280;55982;51.476;7.552;2023-03-22T07:17:27;99012.41;;;11.49;100.00
68941;BME280;55982;51.476;7.552;2023-03-22T07:19:52;99008.94;;;11.49;100.00
68941;BME280;55982;51.476;7.552;2023-03-22T07:22:17;99008.94;;;11.49;100.00
68941;BME280;55982;51.476;7.552;2023-03-22T07:24:47;99002.81;;;11.67;100.00
68941;BME280;55982;51.476;7.552;2023-03-22T07:27:12;99002.94;;;11.64;100.00
68941;BME280;55982;51.476;7.552;2023-03-22T07:29:38;98994.44;;;11.77;100.00
68941;BME280;55982;51.476;7.552;2023-03-22T07:32:03;98993.66;;;11.75;100.00
68941;BME280;55982;51.476;7.552;2023-03-22T07:34:29;98980.94;;;11.85;100.00
68941;BME280;55982;51.476;7.552;2023-03-22T07:36:55;98991.25;;;11.88;100.00
68941;BME280;55982;51.476;7.552;2023-03-22T07:39:23;98985.78;;;11.75;100.00
68941;BME280;55982;51.476;7.552;2023-03-22T07:41:49;98991.47;;;11.83;100.00
68941;BME280;55982;51.476;7.552;2023-03-22T07:44:15;98994.94;;;11.84;100.00
68941;BME280;55982;51.476;7.552;2023-03-22T07:46:41;98983.53;;;11.85;100.00
68941;BME280;55982;51.476;7.552;2023-03-22T07:49:06;98984.75;;;11.95;100.00
68941;BME280;55982;51.476;7.552;2023-03-22T07:51:31;98989.44;;;12.38;100.00
68941;BME280;55982;51.476;7.552;2023-03-22T07:53:57;98975.50;;;12.84;100.00
68941;BME280;55982;51.476;7.552;2023-03-22T07:56:22;98978.03;;;13.47;100.00
68941;BME280;55982;51.476;7.552;2023-03-22T07:58:48;98969.13;;;13.93;100.00
68941;BME280;55982;51.476;7.552;2023-03-22T08:01:13;98977.25;;;14.32;100.00
68941;BME280;55982;51.476;7.552;2023-03-22T08:03:38;98970.66;;;14.68;100.00
68941;BME280;55982;51.476;7.552;2023-03-22T08:06:04;98978.22;;;14.86;100.00
68941;BME280;55982;51.476;7.552;2023-03-22T08:08:35;98968.84;;;15.09;100.00
68941;BME280;55982;51.476;7.552;2023-03-22T08:11:02;98968.72;;;15.37;100.00
68941;BME280;55982;51.476;7.552;2023-03-22T08:13:27;98966.94;;;15.11;100.00
68941;BME280;55982;51.476;7.552;2023-03-22T08:15:52;98966.19;;;15.35;100.00
68941;BME280;55982;51.476;7.552;2023-03-22T08:18:18;98964.81;;;14.48;100.00
68941;BME280;55982;51.476;7.552;2023-03-22T08:20:43;98958.84;;;14.46;100.00
68941;BME280;55982;51.476;7.552;2023-03-22T08:23:11;98968.53;;;14.87;100.00
68941;BME280;55982;51.476;7.552;2023-03-22T08:25:40;98969.31;;;14.60;100.00
68941;BME280;55982;51.476;7.552;2023-03-22T08:28:06;98965.28;;;14.13;100.00
68941;BME280;55982;51.476;7.552;2023-03-22T08:30:32;98950.88;;;13.76;100.00
68941;BME280;55982;51.476;7.552;2023-03-22T08:32:57;98971.50;;;13.54;100.00
68941;BME280;55982;51.476;7.552;2023-03-22T08:35:22;98963.94;;;13.34;100.00
68941;BME280;55982;51.476;7.552;2023-03-22T08:37:52;98975.75;;;13.41;100.00
68941;BME280;55982;51.476;7.552;2023-03-22T08:40:17;98963.75;;;13.37;100.00
68941;BME280;55982;51.476;7.552;2023-03-22T08:42:43;98968.63;;;13.43;100.00
68941;BME280;55982;51.476;7.552;2023-03-22T08:45:08;98979.53;;;13.37;100.00
68941;BME280;55982;51.476;7.552;2023-03-22T08:47:34;98958.88;;;13.31;100.00
68941;BME280;55982;51.476;7.552;2023-03-22T08:50:00;98964.19;;;13.59;100.00
68941;BME280;55982;51.476;7.552;2023-03-22T08:52:25;98969.47;;;13.73;100.00
68941;BME280;55982;51.476;7.552;2023-03-22T08:54:51;98974.34;;;13.65;100.00
68941;BME280;55982;51.476;7.552;2023-03-22T08:57:17;98975.66;;;13.72;100.00
68941;BME280;55982;51.476;7.552;2023-03-22T08:59:43;98975.34;;;13.62;100.00
68941;BME280;55982;51.476;7.552;2023-03-22T09:02:08;98963.63;;;13.68;100.00
68941;BME280;55982;51.476;7.552;2023-03-22T09:04:34;98971.63;;;13.66;100.00
68941;BME280;55982;51.476;7.552;2023-03-22T09:07:00;98953.06;;;13.69;100.00
68941;BME280;55982;51.476;7.552;2023-03-22T09:09:25;98977.78;;;13.81;100.00
68941;BME280;55982;51.476;7.552;2023-03-22T09:11:50;98966.63;;;14.06;100.00
68941;BME280;55982;51.476;7.552;2023-03-22T09:14:16;98977.50;;;14.00;100.00
68941;BME280;55982;51.476;7.552;2023-03-22T09:16:41;98964.63;;;14.09;100.00
68941;BME280;55982;51.476;7.552;2023-03-22T09:19:06;98965.69;;;14.21;100.00
68941;BME280;55982;51.476;7.552;2023-03-22T09:21:32;98961.09;;;14.38;100.00
68941;BME280;55982;51.476;7.552;2023-03-22T09:23:57;98954.78;;;14.41;100.00
68941;BME280;55982;51.476;7.552;2023-03-22T09:26:22;98947.72;;;14.55;100.00
68941;BME280;55982;51.476;7.552;2023-03-22T09:28:49;98962.59;;;14.42;100.00
68941;BME280;55982;51.476;7.552;2023-03-22T09:31:15;98952.84;;;14.30;100.00
68941;BME280;55982;51.476;7.552;2023-03-22T09:33:40;98961.06;;;14.52;100.00
68941;BME280;55982;51.476;7.552;2023-03-22T09:36:07;98954.13;;;15.19;100.00
68941;BME280;55982;51.476;7.552;2023-03-22T09:38:33;98945.00;;;15.76;100.00
68941;BME280;55982;51.476;7.552;2023-03-22T09:41:02;98944.03;;;16.02;100.00
68941;BME280;55982;51.476;7.552;2023-03-22T09:43:35;98949.31;;;16.02;100.00
68941;BME280;55982;51.476;7.552;2023-03-22T09:46:04;98945.63;;;16.05;100.00
68941;BME280;55982;51.476;7.552;2023-03-22T09:48:32;98927.88;;;15.44;100.00
68941;BME280;55982;51.476;7.552;2023-03-22T09:51:01;98938.53;;;15.42;100.00
68941;BME280;55982;51.476;7.552;2023-03-22T09:53:27;98945.19;;;15.21;100.00
68941;BME280;55982;51.476;7.552;2023-03-22T09:56:02;98938.00;;;15.50;100.00
68941;BME280;55982;51.476;7.552;2023-03-22T09:58:50;98931.66;;;16.53;99.42
68941;BME280;55982;51.476;7.552;2023-03-22T10:06:22;98914.13;;;18.03;78.47
68941;BME280;55982;51.476;7.552;2023-03-22T10:09:08;98915.19;;;17.44;77.73
68941;BME280;55982;51.476;7.552;2023-03-22T10:14:49;98921.94;;;16.41;85.82
68941;BME280;55982;51.476;7.552;2023-03-22T10:17:18;98934.63;;;16.48;82.25
68941;BME280;55982;51.476;7.552;2023-03-22T10:19:54;98930.00;;;16.27;85.20
68941;BME280;55982;51.476;7.552;2023-03-22T10:22:25;98922.44;;;15.85;86.95
68941;BME280;55982;51.476;7.552;2023-03-22T10:24:54;98920.09;;;15.80;88.19
68941;BME280;55982;51.476;7.552;2023-03-22T10:27:21;98918.78;;;16.23;85.38
68941;BME280;55982;51.476;7.552;2023-03-22T10:29:53;98922.88;;;16.89;80.32
68941;BME280;55982;51.476;7.552;2023-03-22T10:34:50;98922.53;;;17.17;77.00
68941;BME280;55982;51.476;7.552;2023-03-22T10:37:19;98919.63;;;16.36;77.97
68941;BME280;55982;51.476;7.552;2023-03-22T10:39:54;98928.34;;;15.88;83.37
68941;BME280;55982;51.476;7.552;2023-03-22T10:42:23;98927.91;;;15.94;87.01
68941;BME280;55982;51.476;7.552;2023-03-22T10:44:55;98930.13;;;15.75;86.45
68941;BME280;55982;51.476;7.552;2023-03-22T10:47:35;98934.41;;;16.52;80.76
68941;BME280;55982;51.476;7.552;2023-03-22T10:50:10;98937.25;;;16.85;80.85
68941;BME280;55982;51.476;7.552;2023-03-22T10:52:51;98937.19;;;16.74;80.42
68941;BME280;55982;51.476;7.552;2023-03-22T10:55:19;98926.84;;;17.18;77.10
68941;BME280;55982;51.476;7.552;2023-03-22T10:58:00;98936.63;;;16.32;81.27
68941;BME280;55982;51.476;7.552;2023-03-22T11:00:32;98942.88;;;16.19;85.54
68941;BME280;55982;51.476;7.552;2023-03-22T11:02:59;98922.88;;;16.89;81.28
68941;BME280;55982;51.476;7.552;2023-03-22T11:05:27;98950.38;;;17.68;79.19
68941;BME280;55982;51.476;7.552;2023-03-22T11:07:53;98960.50;;;17.63;78.48
68941;BME280;55982;51.476;7.552;2023-03-22T11:10:31;98949.53;;;18.24;70.18
68941;BME280;55982;51.476;7.552;2023-03-22T11:13:18;98955.78;;;18.23;69.87
68941;BME280;55982;51.476;7.552;2023-03-22T11:15:51;98937.69;;;17.95;73.77
68941;BME280;55982;51.476;7.552;2023-03-22T11:18:18;98949.19;;;17.61;77.90
68941;BME280;55982;51.476;7.552;2023-03-22T11:20:56;98943.84;;;17.50;76.40
68941;BME280;55982;51.476;7.552;2023-03-22T11:23:23;98930.63;;;17.03;74.77
68941;BME280;55982;51.476;7.552;2023-03-22T11:25:49;98943.78;;;16.92;77.85
68941;BME280;55982;51.476;7.552;2023-03-22T11:28:27;98947.38;;;16.91;76.32
68941;BME280;55982;51.476;7.552;2023-03-22T11:31:03;98946.16;;;16.84;78.32
68941;BME280;55982;51.476;7.552;2023-03-22T11:33:29;98933.72;;;17.20;77.84
68941;BME280;55982;51.476;7.552;2023-03-22T11:35:56;98928.69;;;17.52;76.52
68941;BME280;55982;51.476;7.552;2023-03-22T11:40:59;98932.88;;;17.89;72.03
68941;BME280;55982;51.476;7.552;2023-03-22T11:43:46;98936.56;;;17.41;72.37
68941;BME280;55982;51.476;7.552;2023-03-22T11:46:14;98929.69;;;16.80;74.92
68941;BME280;55982;51.476;7.552;2023-03-22T11:48:41;98938.78;;;16.64;76.17
68941;BME280;55982;51.476;7.552;2023-03-22T11:51:15;98918.91;;;16.34;78.65
68941;BME280;55982;51.476;7.552;2023-03-22T11:53:42;98926.44;;;15.90;82.38
68941;BME280;55982;51.476;7.552;2023-03-22T11:56:10;98922.00;;;15.78;83.92
68941;BME280;55982;51.476;7.552;2023-03-22T12:01:14;98900.44;;;15.46;91.67
68941;BME280;55982;51.476;7.552;2023-03-22T12:03:42;98918.81;;;15.48;94.25
68941;BME280;55982;51.476;7.552;2023-03-22T12:06:19;98920.47;;;15.49;92.57
68941;BME280;55982;51.476;7.552;2023-03-22T12:08:54;98912.06;;;15.56;90.41
68941;BME280;55982;51.476;7.552;2023-03-22T12:11:30;98908.19;;;15.35;89.92
68941;BME280;55982;51.476;7.552;2023-03-22T12:17:15;98917.25;;;15.19;96.37
68941;BME280;55982;51.476;7.552;2023-03-22T12:20:03;98920.03;;;14.77;97.88
68941;BME280;55982;51.476;7.552;2023-03-22T12:22:39;98913.13;;;14.61;100.00
68941;BME280;55982;51.476;7.552;2023-03-22T12:25:19;98908.16;;;14.57;100.00
68941;BME280;55982;51.476;7.552;2023-03-22T12:28:13;98912.53;;;14.71;100.00
68941;BME280;55982;51.476;7.552;2023-03-22T12:30:46;98893.47;;;14.67;96.73
68941;BME280;55982;51.476;7.552;2023-03-22T12:35:44;98901.47;;;15.05;97.95
68941;BME280;55982;51.476;7.552;2023-03-22T12:41:06;98885.91;;;15.02;97.68
68941;BME280;55982;51.476;7.552;2023-03-22T12:43:43;98891.97;;;14.90;96.50
68941;BME280;55982;51.476;7.552;2023-03-22T12:46:18;98892.41;;;14.69;99.46
68941;BME280;55982;51.476;7.552;2023-03-22T12:48:49;98884.56;;;14.55;95.89
68941;BME280;55982;51.476;7.552;2023-03-22T12:51:16;98887.84;;;14.45;97.62
68941;BME280;55982;51.476;7.552;2023-03-22T12:53:44;98899.56;;;14.68;98.83
68941;BME280;55982;51.476;7.552;2023-03-22T12:56:14;98911.25;;;14.90;98.58
68941;BME280;55982;51.476;7.552;2023-03-22T12:58:45;98900.16;;;15.12;96.38
68941;BME280;55982;51.476;7.552;2023-03-22T13:01:22;98906.56;;;15.08;96.46
68941;BME280;55982;51.476;7.552;2023-03-22T13:03:52;98911.00;;;14.81;89.26
68941;BME280;55982;51.476;7.552;2023-03-22T13:09:16;98912.41;;;14.72;90.99
68941;BME280;55982;51.476;7.552;2023-03-22T13:11:46;98914.31;;;14.70;89.87
68941;BME280;55982;51.476;7.552;2023-03-22T13:17:41;98920.22;;;14.74;95.60
68941;BME280;55982;51.476;7.552;2023-03-22T13:35:44;98923.50;;;13.94;100.00
68941;BME280;55982;51.476;7.552;2023-03-22T13:38:28;98926.50;;;14.02;100.00
68941;BME280;55982;51.476;7.552;2023-03-22T13:41:07;98917.84;;;13.86;100.00
68941;BME280;55982;51.476;7.552;2023-03-22T14:01:50;98898.13;;;13.93;100.00
68941;BME280;55982;51.476;7.552;2023-03-22T14:04:21;98914.50;;;13.98;100.00
68941;BME280;55982;51.476;7.552;2023-03-22T14:06:57;98912.22;;;14.06;100.00
68941;BME280;55982;51.476;7.552;2023-03-22T14:09:33;98916.44;;;14.09;100.00
68941;BME280;55982;51.476;7.552;2023-03-22T14:12:07;98906.19;;;14.18;100.00
68941;BME280;55982;51.476;7.552;2023-03-22T14:14:42;98907.53;;;14.25;100.00
68941;BME280;55982;51.476;7.552;2023-03-22T14:17:17;98901.13;;;14.43;100.00
68941;BME280;55982;51.476;7.552;2023-03-22T14:19:44;98890.81;;;14.40;100.00
68941;BME280;55982;51.476;7.552;2023-03-22T14:22:15;98899.84;;;14.36;100.00
68941;BME280;55982;51.476;7.552;2023-03-22T14:24:45;98904.28;;;14.62;100.00
68941;BME280;55982;51.476;7.552;2023-03-22T14:27:15;98889.63;;;14.58;100.00
68941;BME280;55982;51.476;7.552;2023-03-22T14:29:44;98878.69;;;14.91;100.00
68941;BME280;55982;51.476;7.552;2023-03-22T14:32:19;98896.53;;;14.74;100.00
68941;BME280;55982;51.476;7.552;2023-03-22T14:34:51;98902.97;;;14.55;100.00
68941;BME280;55982;51.476;7.552;2023-03-22T14:37:18;98887.44;;;14.38;100.00
68941;BME280;55982;51.476;7.552;2023-03-22T14:39:48;98890.22;;;14.35;100.00
68941;BME280;55982;51.476;7.552;2023-03-22T14:44:52;98872.53;;;14.51;100.00